sensor_id;sensor_type;location;lat;lon;timestamp;pressure;altitude;pressure_sealevel;temperature;humidity
37648;BME280;23490;53.656;10.076;2023-02-12T00:00:35;99529.53;;;-145.95;100.00
37648;BME280;23490;53.656;10.076;2023-02-12T00:03:00;99552.25;;;-145.95;100.00
37648;BME280;23490;53.656;10.076;2023-02-12T00:05:25;99488.22;;;-145.95;100.00
37648;BME280;23490;53.656;10.076;2023-02-12T00:07:52;99529.53;;;-145.95;100.00
37648;BME280;23490;53.656;10.076;2023-02-12T00:10:18;99525.41;;;-145.95;100.00
37648;BME280;23490;53.656;10.076;2023-02-12T00:12:43;99492.34;;;-145.95;100.00
37648;BME280;23490;53.656;10.076;2023-02-12T00:15:08;99506.81;;;-145.95;100.00
37648;BME280;23490;53.656;10.076;2023-02-12T00:17:34;99523.34;;;-145.95;100.00
37648;BME280;23490;53.656;10.076;2023-02-12T00:19:59;99510.94;;;-145.95;100.00
37648;BME280;23490;53.656;10.076;2023-02-12T00:22:24;99525.41;;;-145.95;100.00
37648;BME280;23490;53.656;10.076;2023-02-12T00:24:50;99502.69;;;-145.95;100.00
37648;BME280;23490;53.656;10.076;2023-02-12T00:27:15;99455.19;;;-145.95;100.00
37648;BME280;23490;53.656;10.076;2023-02-12T00:29:40;99529.53;;;-145.95;100.00
37648;BME280;23490;53.656;10.076;2023-02-12T00:32:06;99529.53;;;-145.95;100.00
37648;BME280;23490;53.656;10.076;2023-02-12T00:34:31;99496.47;;;-145.95;100.00
37648;BME280;23490;53.656;10.076;2023-02-12T00:36:57;99525.41;;;-145.95;100.00
37648;BME280;23490;53.656;10.076;2023-02-12T00:39:22;99496.47;;;-145.95;100.00
37648;BME280;23490;53.656;10.076;2023-02-12T00:41:47;99517.13;;;-145.95;100.00
37648;BME280;23490;53.656;10.076;2023-02-12T00:44:13;99541.91;;;-145.95;100.00
37648;BME280;23490;53.656;10.076;2023-02-12T00:46:38;99523.34;;;-145.95;100.00
37648;BME280;23490;53.656;10.076;2023-02-12T00:49:03;99525.41;;;-145.95;100.00
37648;BME280;23490;53.656;10.076;2023-02-12T00:51:28;99541.91;;;-145.95;100.00
37648;BME280;23490;53.656;10.076;2023-02-12T00:53:54;99529.53;;;-145.95;100.00
37648;BME280;23490;53.656;10.076;2023-02-12T00:56:19;99508.88;;;-145.95;100.00
37648;BME280;23490;53.656;10.076;2023-02-12T00:58:44;99533.66;;;-145.95;100.00
37648;BME280;23490;53.656;10.076;2023-02-12T01:01:10;99554.31;;;-145.95;100.00
37648;BME280;23490;53.656;10.076;2023-02-12T01:03:35;99510.94;;;-145.95;100.00
37648;BME280;23490;53.656;10.076;2023-02-12T01:06:01;99529.53;;;-145.95;100.00
37648;BME280;23490;53.656;10.076;2023-02-12T01:08:26;99502.69;;;-145.95;100.00
37648;BME280;23490;53.656;10.076;2023-02-12T01:10:56;99541.91;;;-145.95;100.00
37648;BME280;23490;53.656;10.076;2023-02-12T01:13:22;99527.47;;;-145.95;100.00
37648;BME280;23490;53.656;10.076;2023-02-12T01:15:49;99548.13;;;-145.95;100.00
37648;BME280;23490;53.656;10.076;2023-02-12T01:18:14;99541.91;;;-145.95;100.00
37648;BME280;23490;53.656;10.076;2023-02-12T01:20:40;99513.00;;;-145.95;100.00
37648;BME280;23490;53.656;10.076;2023-02-12T01:23:06;99533.66;;;-145.95;100.00
37648;BME280;23490;53.656;10.076;2023-02-12T01:25:32;99492.34;;;-145.95;100.00
37648;BME280;23490;53.656;10.076;2023-02-12T01:27:58;99513.00;;;-145.95;100.00
37648;BME280;23490;53.656;10.076;2023-02-12T01:30:23;99562.56;;;-145.95;100.00
37648;BME280;23490;53.656;10.076;2023-02-12T01:32:49;99467.56;;;-145.95;100.00
37648;BME280;23490;53.656;10.076;2023-02-12T01:35:14;99531.59;;;-145.95;100.00
37648;BME280;23490;53.656;10.076;2023-02-12T01:37:40;99529.53;;;-145.95;100.00
37648;BME280;23490;53.656;10.076;2023-02-12T01:40:06;99525.41;;;-145.95;100.00
37648;BME280;23490;53.656;10.076;2023-02-12T01:42:32;99533.66;;;-145.95;100.00
37648;BME280;23490;53.656;10.076;2023-02-12T01:47:40;99498.56;;;-145.95;100.00
37648;BME280;23490;53.656;10.076;2023-02-12T01:50:08;99537.78;;;-145.95;100.00
37648;BME280;23490;53.656;10.076;2023-02-12T01:52:37;99533.66;;;-145.95;100.00
37648;BME280;23490;53.656;10.076;2023-02-12T01:55:06;99517.13;;;-145.95;100.00
37648;BME280;23490;53.656;10.076;2023-02-12T01:57:34;99537.78;;;-145.95;100.00
37648;BME280;23490;53.656;10.076;2023-02-12T02:00:05;99500.63;;;-145.95;100.00
37648;BME280;23490;53.656;10.076;2023-02-12T02:02:31;99496.47;;;-145.95;100.00
37648;BME280;23490;53.656;10.076;2023-02-12T02:05:01;99560.50;;;-145.95;100.00
37648;BME280;23490;53.656;10.076;2023-02-12T02:07:27;99523.34;;;-145.95;100.00
37648;BME280;23490;53.656;10.076;2023-02-12T02:09:53;99537.78;;;-145.95;100.00
37648;BME280;23490;53.656;10.076;2023-02-12T02:12:19;99531.59;;;-145.95;100.00
37648;BME280;23490;53.656;10.076;2023-02-12T02:15:04;99550.19;;;-145.95;100.00
37648;BME280;23490;53.656;10.076;2023-02-12T02:20:41;99583.22;;;-145.95;100.00
37648;BME280;23490;53.656;10.076;2023-02-12T02:28:38;99527.47;;;-145.95;100.00
37648;BME280;23490;53.656;10.076;2023-02-12T02:34:15;99521.28;;;-145.95;100.00
37648;BME280;23490;53.656;10.076;2023-02-12T02:36:54;99537.78;;;-145.95;100.00
37648;BME280;23490;53.656;10.076;2023-02-12T02:45:03;99537.78;;;-145.95;100.00
37648;BME280;23490;53.656;10.076;2023-02-12T02:47:37;99515.06;;;-145.95;100.00
37648;BME280;23490;53.656;10.076;2023-02-12T02:50:10;99525.41;;;-145.95;100.00
37648;BME280;23490;53.656;10.076;2023-02-12T02:52:44;99539.84;;;-145.95;100.00
37648;BME280;23490;53.656;10.076;2023-02-12T02:55:13;99546.06;;;-145.95;100.00
37648;BME280;23490;53.656;10.076;2023-02-12T02:57:46;99486.16;;;-145.95;100.00
37648;BME280;23490;53.656;10.076;2023-02-12T03:00:25;99504.75;;;-145.95;100.00
37648;BME280;23490;53.656;10.076;2023-02-12T03:03:01;99525.41;;;-145.95;100.00
37648;BME280;23490;53.656;10.076;2023-02-12T03:05:32;99521.28;;;-145.95;100.00
37648;BME280;23490;53.656;10.076;2023-02-12T03:08:18;99513.00;;;-145.95;100.00
37648;BME280;23490;53.656;10.076;2023-02-12T03:10:57;99527.47;;;-145.95;100.00
37648;BME280;23490;53.656;10.076;2023-02-12T03:13:33;99533.66;;;-145.95;100.00
37648;BME280;23490;53.656;10.076;2023-02-12T03:16:08;99539.84;;;-145.95;100.00
37648;BME280;23490;53.656;10.076;2023-02-12T03:18:41;99548.13;;;-145.95;100.00
37648;BME280;23490;53.656;10.076;2023-02-12T03:21:12;99504.75;;;-145.95;100.00
37648;BME280;23490;53.656;10.076;2023-02-12T03:23:46;99533.66;;;-145.95;100.00
37648;BME280;23490;53.656;10.076;2023-02-12T03:26:18;99539.84;;;-145.95;100.00
37648;BME280;23490;53.656;10.076;2023-02-12T03:28:46;99546.06;;;-145.95;100.00
37648;BME280;23490;53.656;10.076;2023-02-12T03:37:04;99529.53;;;-145.95;100.00
37648;BME280;23490;53.656;10.076;2023-02-12T03:39:57;99546.06;;;-145.95;100.00
37648;BME280;23490;53.656;10.076;2023-02-12T03:45:37;99529.53;;;-145.95;100.00
37648;BME280;23490;53.656;10.076;2023-02-12T03:48:23;99568.78;;;-145.95;100.00
37648;BME280;23490;53.656;10.076;2023-02-12T03:50:55;99558.44;;;-145.95;100.00
37648;BME280;23490;53.656;10.076;2023-02-12T03:53:22;99492.34;;;-145.95;100.00
37648;BME280;23490;53.656;10.076;2023-02-12T03:55:54;99556.38;;;-145.95;100.00
37648;BME280;23490;53.656;10.076;2023-02-12T03:58:24;99546.06;;;-145.95;100.00
37648;BME280;23490;53.656;10.076;2023-02-12T04:00:52;99519.22;;;-145.95;100.00
37648;BME280;23490;53.656;10.076;2023-02-12T04:03:17;99500.63;;;-145.95;100.00
37648;BME280;23490;53.656;10.076;2023-02-12T04:05:44;99572.91;;;-145.95;100.00
37648;BME280;23490;53.656;10.076;2023-02-12T04:08:10;99548.13;;;-145.95;100.00
37648;BME280;23490;53.656;10.076;2023-02-12T04:16:32;99529.53;;;-145.95;100.00
37648;BME280;23490;53.656;10.076;2023-02-12T04:18:59;99566.69;;;-145.95;100.00
37648;BME280;23490;53.656;10.076;2023-02-12T04:27:10;99529.53;;;-145.95;100.00
37648;BME280;23490;53.656;10.076;2023-02-12T04:29:53;99541.91;;;-145.95;100.00
37648;BME280;23490;53.656;10.076;2023-02-12T04:32:40;99568.78;;;-145.95;100.00
37648;BME280;23490;53.656;10.076;2023-02-12T04:35:21;99508.88;;;-145.95;100.00
37648;BME280;23490;53.656;10.076;2023-02-12T04:38:09;99521.28;;;-145.95;100.00
37648;BME280;23490;53.656;10.076;2023-02-12T04:40:38;99539.84;;;-145.95;100.00
37648;BME280;23490;53.656;10.076;2023-02-12T04:43:05;99529.53;;;-145.95;100.00
37648;BME280;23490;53.656;10.076;2023-02-12T04:45:32;99521.28;;;-145.95;100.00
37648;BME280;23490;53.656;10.076;2023-02-12T04:47:58;99537.78;;;-145.95;100.00
37648;BME280;23490;53.656;10.076;2023-02-12T04:50:24;99558.44;;;-145.95;100.00
37648;BME280;23490;53.656;10.076;2023-02-12T04:52:49;99554.31;;;-145.95;100.00
37648;BME280;23490;53.656;10.076;2023-02-12T04:55:15;99566.69;;;-145.95;100.00
37648;BME280;23490;53.656;10.076;2023-02-12T04:57:40;99562.56;;;-145.95;100.00
37648;BME280;23490;53.656;10.076;2023-02-12T05:00:08;99583.22;;;-145.95;100.00
37648;BME280;23490;53.656;10.076;2023-02-12T05:02:34;99548.13;;;-145.95;100.00
37648;BME280;23490;53.656;10.076;2023-02-12T05:04:59;99546.06;;;-145.95;100.00
37648;BME280;23490;53.656;10.076;2023-02-12T05:07:24;99554.31;;;-145.95;100.00
37648;BME280;23490;53.656;10.076;2023-02-12T05:09:50;99581.16;;;-145.95;100.00
37648;BME280;23490;53.656;10.076;2023-02-12T05:12:15;99554.31;;;-145.95;100.00
37648;BME280;23490;53.656;10.076;2023-02-12T05:14:41;99535.72;;;-145.95;100.00
37648;BME280;23490;53.656;10.076;2023-02-12T05:17:06;99570.84;;;-145.95;100.00
37648;BME280;23490;53.656;10.076;2023-02-12T05:19:32;99527.47;;;-145.95;100.00
37648;BME280;23490;53.656;10.076;2023-02-12T05:21:57;99529.53;;;-145.95;100.00
37648;BME280;23490;53.656;10.076;2023-02-12T05:24:22;99550.19;;;-145.95;100.00
37648;BME280;23490;53.656;10.076;2023-02-12T05:26:48;99546.06;;;-145.95;100.00
37648;BME280;23490;53.656;10.076;2023-02-12T05:29:14;99554.31;;;-145.95;100.00
37648;BME280;23490;53.656;10.076;2023-02-12T05:31:39;99537.78;;;-145.95;100.00
37648;BME280;23490;53.656;10.076;2023-02-12T05:34:07;99550.19;;;-145.95;100.00
37648;BME280;23490;53.656;10.076;2023-02-12T05:36:34;99504.75;;;-145.95;100.00
37648;BME280;23490;53.656;10.076;2023-02-12T05:38:59;99510.94;;;-145.95;100.00
37648;BME280;23490;53.656;10.076;2023-02-12T05:41:25;99537.78;;;-145.95;100.00
37648;BME280;23490;53.656;10.076;2023-02-12T05:43:51;99533.66;;;-145.95;100.00
37648;BME280;23490;53.656;10.076;2023-02-12T05:46:19;99546.06;;;-145.95;100.00
37648;BME280;23490;53.656;10.076;2023-02-12T05:48:45;99562.56;;;-145.95;100.00
37648;BME280;23490;53.656;10.076;2023-02-12T05:51:14;99562.56;;;-145.95;100.00
37648;BME280;23490;53.656;10.076;2023-02-12T05:53:40;99504.75;;;-145.95;100.00
37648;BME280;23490;53.656;10.076;2023-02-12T05:58:36;99533.66;;;-145.95;100.00
37648;BME280;23490;53.656;10.076;2023-02-12T06:01:01;99541.91;;;-145.95;100.00
37648;BME280;23490;53.656;10.076;2023-02-12T06:03:27;99552.25;;;-145.95;100.00
37648;BME280;23490;53.656;10.076;2023-02-12T06:05:52;99583.22;;;-145.95;100.00
37648;BME280;23490;53.656;10.076;2023-02-12T06:08:18;99541.91;;;-145.95;100.00
37648;BME280;23490;53.656;10.076;2023-02-12T06:10:43;99531.59;;;-145.95;100.00
37648;BME280;23490;53.656;10.076;2023-02-12T06:13:09;99515.06;;;-145.95;100.00
37648;BME280;23490;53.656;10.076;2023-02-12T06:15:37;99533.66;;;-145.95;100.00
37648;BME280;23490;53.656;10.076;2023-02-12T06:18:03;99537.78;;;-145.95;100.00
37648;BME280;23490;53.656;10.076;2023-02-12T06:20:28;99525.41;;;-145.95;100.00
37648;BME280;23490;53.656;10.076;2023-02-12T06:22:53;99546.06;;;-145.95;100.00
37648;BME280;23490;53.656;10.076;2023-02-12T06:25:19;99508.88;;;-145.95;100.00
37648;BME280;23490;53.656;10.076;2023-02-12T06:27:44;99488.22;;;-145.95;100.00
37648;BME280;23490;53.656;10.076;2023-02-12T06:30:10;99502.69;;;-145.95;100.00
37648;BME280;23490;53.656;10.076;2023-02-12T06:32:35;99504.75;;;-145.95;100.00
37648;BME280;23490;53.656;10.076;2023-02-12T06:35:01;99515.06;;;-145.95;100.00
37648;BME280;23490;53.656;10.076;2023-02-12T06:37:26;99546.06;;;-145.95;100.00
37648;BME280;23490;53.656;10.076;2023-02-12T06:39:52;99500.63;;;-145.95;100.00
37648;BME280;23490;53.656;10.076;2023-02-12T06:42:17;99500.63;;;-145.95;100.00
37648;BME280;23490;53.656;10.076;2023-02-12T06:44:42;99539.84;;;-145.95;100.00
37648;BME280;23490;53.656;10.076;2023-02-12T06:47:08;99500.63;;;-145.95;100.00
37648;BME280;23490;53.656;10.076;2023-02-12T06:49:33;99519.22;;;-145.95;100.00
37648;BME280;23490;53.656;10.076;2023-02-12T06:51:58;99529.53;;;-145.95;100.00
37648;BME280;23490;53.656;10.076;2023-02-12T06:54:24;99482.03;;;-145.95;100.00
37648;BME280;23490;53.656;10.076;2023-02-12T06:56:49;99529.53;;;-145.95;100.00
37648;BME280;23490;53.656;10.076;2023-02-12T06:59:15;99537.78;;;-145.95;100.00
37648;BME280;23490;53.656;10.076;2023-02-12T07:01:41;99525.41;;;-145.95;100.00
37648;BME280;23490;53.656;10.076;2023-02-12T07:04:06;99535.72;;;-145.95;100.00
37648;BME280;23490;53.656;10.076;2023-02-12T07:06:33;99463.44;;;-145.95;100.00
37648;BME280;23490;53.656;10.076;2023-02-12T07:08:59;99510.94;;;-145.95;100.00
37648;BME280;23490;53.656;10.076;2023-02-12T07:11:27;99504.75;;;-145.95;100.00
37648;BME280;23490;53.656;10.076;2023-02-12T07:13:53;99479.97;;;-145.95;100.00
37648;BME280;23490;53.656;10.076;2023-02-12T07:16:19;99455.19;;;-145.95;100.00
37648;BME280;23490;53.656;10.076;2023-02-12T07:18:45;99488.22;;;-145.95;100.00
37648;BME280;23490;53.656;10.076;2023-02-12T07:21:12;99504.75;;;-145.95;100.00
37648;BME280;23490;53.656;10.076;2023-02-12T07:23:37;99498.56;;;-145.95;100.00
37648;BME280;23490;53.656;10.076;2023-02-12T07:26:05;99453.13;;;-145.95;100.00
37648;BME280;23490;53.656;10.076;2023-02-12T07:28:32;99484.09;;;-145.95;100.00
37648;BME280;23490;53.656;10.076;2023-02-12T07:31:19;99475.84;;;-145.95;100.00
37648;BME280;23490;53.656;10.076;2023-02-12T07:33:44;99479.97;;;-145.95;100.00
37648;BME280;23490;53.656;10.076;2023-02-12T07:36:15;99475.84;;;-145.95;100.00
37648;BME280;23490;53.656;10.076;2023-02-12T07:38:41;99479.97;;;-145.95;100.00
37648;BME280;23490;53.656;10.076;2023-02-12T07:41:18;99444.84;;;-145.95;100.00
37648;BME280;23490;53.656;10.076;2023-02-12T07:43:47;99463.44;;;-145.95;100.00
37648;BME280;23490;53.656;10.076;2023-02-12T07:46:15;99513.00;;;-145.95;100.00
37648;BME280;23490;53.656;10.076;2023-02-12T07:48:41;99422.13;;;-145.95;100.00
37648;BME280;23490;53.656;10.076;2023-02-12T07:51:08;99471.69;;;-145.95;100.00
37648;BME280;23490;53.656;10.076;2023-02-12T07:53:35;99422.13;;;-145.95;100.00
37648;BME280;23490;53.656;10.076;2023-02-12T07:56:24;99467.56;;;-145.95;100.00
37648;BME280;23490;53.656;10.076;2023-02-12T07:58:53;99484.09;;;-145.95;100.00
37648;BME280;23490;53.656;10.076;2023-02-12T08:01:27;99467.56;;;-145.95;100.00
37648;BME280;23490;53.656;10.076;2023-02-12T08:03:56;99451.06;;;-145.95;100.00
37648;BME280;23490;53.656;10.076;2023-02-12T08:06:24;99457.25;;;-145.95;100.00
37648;BME280;23490;53.656;10.076;2023-02-12T08:08:51;99436.59;;;-145.95;100.00
37648;BME280;23490;53.656;10.076;2023-02-12T08:11:17;99432.47;;;-145.95;100.00
37648;BME280;23490;53.656;10.076;2023-02-12T08:13:43;99451.06;;;-145.95;100.00
37648;BME280;23490;53.656;10.076;2023-02-12T08:16:12;99479.97;;;-145.95;100.00
37648;BME280;23490;53.656;10.076;2023-02-12T08:18:38;99430.41;;;-145.95;100.00
37648;BME280;23490;53.656;10.076;2023-02-12T08:21:05;99455.19;;;-145.95;100.00
37648;BME280;23490;53.656;10.076;2023-02-12T08:23:31;99430.41;;;-145.95;100.00
37648;BME280;23490;53.656;10.076;2023-02-12T08:26:07;99451.06;;;-145.95;100.00
37648;BME280;23490;53.656;10.076;2023-02-12T08:28:33;99467.56;;;-145.95;100.00
37648;BME280;23490;53.656;10.076;2023-02-12T08:31:10;99451.06;;;-145.95;100.00
37648;BME280;23490;53.656;10.076;2023-02-12T08:33:35;99418.00;;;-145.95;100.00
37648;BME280;23490;53.656;10.076;2023-02-12T08:36:03;99434.53;;;-145.95;100.00
37648;BME280;23490;53.656;10.076;2023-02-12T08:38:30;99430.41;;;-145.95;100.00
37648;BME280;23490;53.656;10.076;2023-02-12T08:40:55;99426.28;;;-145.95;100.00
37648;BME280;23490;53.656;10.076;2023-02-12T08:43:20;99451.06;;;-145.95;100.00
37648;BME280;23490;53.656;10.076;2023-02-12T08:45:46;99422.13;;;-145.95;100.00
37648;BME280;23490;53.656;10.076;2023-02-12T08:48:11;99426.28;;;-145.95;100.00
37648;BME280;23490;53.656;10.076;2023-02-12T08:50:37;99418.00;;;-145.95;100.00
37648;BME280;23490;53.656;10.076;2023-02-12T08:53:03;99413.88;;;-145.95;100.00
37648;BME280;23490;53.656;10.076;2023-02-12T08:55:28;99409.75;;;-145.95;100.00
37648;BME280;23490;53.656;10.076;2023-02-12T08:57:53;99366.38;;;-145.95;100.00
37648;BME280;23490;53.656;10.076;2023-02-12T09:00:22;99430.41;;;-145.95;100.00
37648;BME280;23490;53.656;10.076;2023-02-12T09:02:47;99422.13;;;-145.95;100.00
37648;BME280;23490;53.656;10.076;2023-02-12T09:05:12;99372.56;;;-145.95;100.00
37648;BME280;23490;53.656;10.076;2023-02-12T09:07:38;99424.19;;;-145.95;100.00
37648;BME280;23490;53.656;10.076;2023-02-12T09:10:04;99455.19;;;-145.95;100.00
37648;BME280;23490;53.656;10.076;2023-02-12T09:12:29;99397.34;;;-145.95;100.00
37648;BME280;23490;53.656;10.076;2023-02-12T09:14:54;99370.50;;;-145.95;100.00
37648;BME280;23490;53.656;10.076;2023-02-12T09:17:20;99426.28;;;-145.95;100.00
37648;BME280;23490;53.656;10.076;2023-02-12T09:19:45;99387.03;;;-145.95;100.00
37648;BME280;23490;53.656;10.076;2023-02-12T09:22:11;99397.34;;;-145.95;100.00
37648;BME280;23490;53.656;10.076;2023-02-12T09:24:36;99413.88;;;-145.95;100.00
37648;BME280;23490;53.656;10.076;2023-02-12T09:27:01;99455.19;;;-145.95;100.00
37648;BME280;23490;53.656;10.076;2023-02-12T09:29:27;99409.75;;;-145.95;100.00
37648;BME280;23490;53.656;10.076;2023-02-12T09:31:52;99397.34;;;-145.95;100.00
37648;BME280;23490;53.656;10.076;2023-02-12T09:34:17;99413.88;;;-145.95;100.00
37648;BME280;23490;53.656;10.076;2023-02-12T09:36:43;99413.88;;;-145.95;100.00
37648;BME280;23490;53.656;10.076;2023-02-12T09:39:08;99401.50;;;-145.95;100.00
37648;BME280;23490;53.656;10.076;2023-02-12T09:44:45;99393.22;;;-145.95;100.00
37648;BME280;23490;53.656;10.076;2023-02-12T09:47:41;99380.84;;;-145.95;100.00
37648;BME280;23490;53.656;10.076;2023-02-12T09:50:26;99347.78;;;-145.95;100.00
37648;BME280;23490;53.656;10.076;2023-02-12T09:52:53;99366.38;;;-145.95;100.00
37648;BME280;23490;53.656;10.076;2023-02-12T09:55:23;99358.13;;;-145.95;100.00
37648;BME280;23490;53.656;10.076;2023-02-12T09:57:50;99364.31;;;-145.95;100.00
37648;BME280;23490;53.656;10.076;2023-02-12T10:00:27;99320.94;;;-145.95;100.00
37648;BME280;23490;53.656;10.076;2023-02-12T10:03:02;99364.31;;;-145.95;100.00
37648;BME280;23490;53.656;10.076;2023-02-12T10:05:31;99364.31;;;-145.95;100.00
37648;BME280;23490;53.656;10.076;2023-02-12T10:11:15;99347.78;;;-145.95;100.00
37648;BME280;23490;53.656;10.076;2023-02-12T10:14:02;99372.56;;;-145.95;100.00
37648;BME280;23490;53.656;10.076;2023-02-12T10:17:13;99345.72;;;-145.95;100.00
37648;BME280;23490;53.656;10.076;2023-02-12T10:20:04;99411.81;;;-145.95;100.00
37648;BME280;23490;53.656;10.076;2023-02-12T10:22:43;99335.41;;;-145.95;100.00
37648;BME280;23490;53.656;10.076;2023-02-12T10:25:18;99356.06;;;-145.95;100.00
37648;BME280;23490;53.656;10.076;2023-02-12T10:27:51;99374.63;;;-145.95;100.00
37648;BME280;23490;53.656;10.076;2023-02-12T10:30:30;99391.16;;;-145.95;100.00
37648;BME280;23490;53.656;10.076;2023-02-12T10:33:02;99380.84;;;-145.95;100.00
37648;BME280;23490;53.656;10.076;2023-02-12T10:35:29;99356.06;;;-145.95;100.00
37648;BME280;23490;53.656;10.076;2023-02-12T10:37:59;99356.06;;;-145.95;100.00
37648;BME280;23490;53.656;10.076;2023-02-12T10:40:33;99368.44;;;-145.95;100.00
37648;BME280;23490;53.656;10.076;2023-02-12T10:43:02;99356.06;;;-145.95;100.00
37648;BME280;23490;53.656;10.076;2023-02-12T10:45:36;99325.06;;;-145.95;100.00
37648;BME280;23490;53.656;10.076;2023-02-12T10:48:11;99343.66;;;-145.95;100.00
37648;BME280;23490;53.656;10.076;2023-02-12T10:53:37;99368.44;;;-145.95;100.00
37648;BME280;23490;53.656;10.076;2023-02-12T10:56:21;99351.91;;;-145.95;100.00
37648;BME280;23490;53.656;10.076;2023-02-12T11:01:26;99415.94;;;-145.95;100.00
37648;BME280;23490;53.656;10.076;2023-02-12T11:03:54;99397.34;;;-145.95;100.00
37648;BME280;23490;53.656;10.076;2023-02-12T11:06:25;99356.06;;;-145.95;100.00
37648;BME280;23490;53.656;10.076;2023-02-12T11:08:52;99370.50;;;-145.95;100.00
37648;BME280;23490;53.656;10.076;2023-02-12T11:11:29;99413.88;;;-145.95;100.00
37648;BME280;23490;53.656;10.076;2023-02-12T11:16:32;99360.19;;;-145.95;100.00
37648;BME280;23490;53.656;10.076;2023-02-12T11:19:18;99376.69;;;-145.95;100.00
37648;BME280;23490;53.656;10.076;2023-02-12T11:21:44;99376.69;;;-145.95;100.00
37648;BME280;23490;53.656;10.076;2023-02-12T11:26:50;99372.56;;;-145.95;100.00
37648;BME280;23490;53.656;10.076;2023-02-12T11:29:19;99382.91;;;-145.95;100.00
37648;BME280;23490;53.656;10.076;2023-02-12T11:31:59;99380.84;;;-145.95;100.00
37648;BME280;23490;53.656;10.076;2023-02-12T11:34:25;99368.44;;;-145.95;100.00
37648;BME280;23490;53.656;10.076;2023-02-12T11:36:52;99339.53;;;-145.95;100.00
37648;BME280;23490;53.656;10.076;2023-02-12T11:39:22;99339.53;;;-145.95;100.00
37648;BME280;23490;53.656;10.076;2023-02-12T11:42:00;99366.38;;;-145.95;100.00
37648;BME280;23490;53.656;10.076;2023-02-12T11:44:33;99337.47;;;-145.95;100.00
37648;BME280;23490;53.656;10.076;2023-02-12T11:47:09;99387.03;;;-145.95;100.00
37648;BME280;23490;53.656;10.076;2023-02-12T11:49:42;99403.56;;;-145.95;100.00
37648;BME280;23490;53.656;10.076;2023-02-12T11:52:21;99384.97;;;-145.95;100.00
37648;BME280;23490;53.656;10.076;2023-02-12T11:54:49;99380.84;;;-145.95;100.00
37648;BME280;23490;53.656;10.076;2023-02-12T11:57:34;99418.00;;;-145.95;100.00
37648;BME280;23490;53.656;10.076;2023-02-12T12:00:03;99345.72;;;-145.95;100.00
37648;BME280;23490;53.656;10.076;2023-02-12T12:02:33;99354.00;;;-145.95;100.00
37648;BME280;23490;53.656;10.076;2023-02-12T12:05:13;99368.44;;;-145.95;100.00
37648;BME280;23490;53.656;10.076;2023-02-12T12:07:50;99368.44;;;-145.95;100.00
37648;BME280;23490;53.656;10.076;2023-02-12T12:10:30;99347.78;;;-145.95;100.00
37648;BME280;23490;53.656;10.076;2023-02-12T12:13:02;99343.66;;;-145.95;100.00
37648;BME280;23490;53.656;10.076;2023-02-12T12:15:35;99384.97;;;-145.95;100.00
37648;BME280;23490;53.656;10.076;2023-02-12T12:18:46;99384.97;;;-145.95;100.00
37648;BME280;23490;53.656;10.076;2023-02-12T12:21:35;99364.31;;;-145.95;100.00
37648;BME280;23490;53.656;10.076;2023-02-12T12:26:38;99389.09;;;-145.95;100.00
37648;BME280;23490;53.656;10.076;2023-02-12T12:29:25;99351.91;;;-145.95;100.00
37648;BME280;23490;53.656;10.076;2023-02-12T12:32:00;99407.69;;;-145.95;100.00
37648;BME280;23490;53.656;10.076;2023-02-12T12:34:27;99354.00;;;-145.95;100.00
37648;BME280;23490;53.656;10.076;2023-02-12T12:39:35;99380.84;;;-145.95;100.00
37648;BME280;23490;53.656;10.076;2023-02-12T12:53:50;99380.84;;;-145.95;100.00
37648;BME280;23490;53.656;10.076;2023-02-12T13:02:32;99380.84;;;-145.95;100.00
37648;BME280;23490;53.656;10.076;2023-02-12T13:13:35;99310.63;;;-145.95;100.00
37648;BME280;23490;53.656;10.076;2023-02-12T13:16:10;99306.50;;;-145.95;100.00
37648;BME280;23490;53.656;10.076;2023-02-12T13:18:49;99354.00;;;-145.95;100.00
37648;BME280;23490;53.656;10.076;2023-02-12T13:21:31;99318.88;;;-145.95;100.00
37648;BME280;23490;53.656;10.076;2023-02-12T13:24:06;99360.19;;;-145.95;100.00
37648;BME280;23490;53.656;10.076;2023-02-12T13:26:54;99318.88;;;-145.95;100.00
37648;BME280;23490;53.656;10.076;2023-02-12T13:29:34;99364.31;;;-145.95;100.00
37648;BME280;23490;53.656;10.076;2023-02-12T13:34:38;99351.91;;;-145.95;100.00
37648;BME280;23490;53.656;10.076;2023-02-12T13:37:10;99323.00;;;-145.95;100.00
37648;BME280;23490;53.656;10.076;2023-02-12T13:39:41;99327.13;;;-145.95;100.00
37648;BME280;23490;53.656;10.076;2023-02-12T14:01:11;99318.88;;;-145.95;100.00
37648;BME280;23490;53.656;10.076;2023-02-12T14:03:39;99294.09;;;-145.95;100.00
37648;BME280;23490;53.656;10.076;2023-02-12T14:06:14;99327.13;;;-145.95;100.00
37648;BME280;23490;53.656;10.076;2023-02-12T14:08:43;99325.06;;;-145.95;100.00
37648;BME280;23490;53.656;10.076;2023-02-12T14:11:14;99341.59;;;-145.95;100.00
37648;BME280;23490;53.656;10.076;2023-02-12T14:14:00;99347.78;;;-145.95;100.00
37648;BME280;23490;53.656;10.076;2023-02-12T14:22:09;99351.91;;;-145.95;100.00
37648;BME280;23490;53.656;10.076;2023-02-12T14:27:03;99364.31;;;-145.95;100.00
37648;BME280;23490;53.656;10.076;2023-02-12T14:29:29;99368.44;;;-145.95;100.00
37648;BME280;23490;53.656;10.076;2023-02-12T14:31:54;99370.50;;;-145.95;100.00
37648;BME280;23490;53.656;10.076;2023-02-12T14:36:46;99335.41;;;-145.95;100.00